Time;durP1;ratioP1;P1;durP2;ratioP2;P2;SDS_P1;SDS_P2;PMS_P1;PMS_P2;Temp;Humidity;BMP_temperature;BMP_pressure;BME280_temperature;BME280_humidity;BME280_pressure;Samples;Min_cycle;Max_cycle;Signal;HPM_P1;HPM_P2
2022/07/22 00:01:58;;;;;;;6.10;3.43;;;;;;;;;;5039372;28;87885;-49
2022/07/22 00:04:29;;;;;;;7.03;3.63;;;;;;;;;;5039787;28;86278;-49
2022/07/22 00:06:57;;;;;;;5.20;3.37;;;;;;;;;;5039689;28;88023;-49
2022/07/22 00:09:25;;;;;;;4.87;3.30;;;;;;;;;;5039264;28;87970;-49
2022/07/22 00:11:54;;;;;;;5.33;2.77;;;;;;;;;;5039427;28;87796;-49
2022/07/22 00:14:22;;;;;;;6.80;3.03;;;;;;;;;;5040028;28;87102;-49
2022/07/22 00:16:51;;;;;;;4.63;3.10;;;;;;;;;;5040779;28;88848;-49
2022/07/22 00:19:19;;;;;;;5.37;3.13;;;;;;;;;;5040656;28;87001;-49
2022/07/22 00:21:49;;;;;;;7.07;3.43;;;;;;;;;;5040730;28;86990;-49
2022/07/22 00:24:17;;;;;;;5.17;3.43;;;;;;;;;;5044118;28;87029;-49
2022/07/22 00:26:45;;;;;;;3.23;2.77;;;;;;;;;;5043274;28;88137;-49
2022/07/22 00:29:13;;;;;;;5.17;2.97;;;;;;;;;;5044002;28;87799;-49
2022/07/22 00:31:42;;;;;;;3.37;2.23;;;;;;;;;;5043515;28;86714;-49
2022/07/22 00:34:10;;;;;;;2.63;1.80;;;;;;;;;;5043639;28;87128;-51
2022/07/22 00:36:38;;;;;;;3.07;2.60;;;;;;;;;;5042905;28;90103;-49
2022/07/22 00:39:08;;;;;;;3.60;2.00;;;;;;;;;;5044064;28;88786;-49
2022/07/22 00:41:36;;;;;;;2.30;2.00;;;;;;;;;;5043670;28;87944;-49
2022/07/22 00:44:06;;;;;;;5.83;1.97;;;;;;;;;;5044329;28;86897;-49
2022/07/22 00:46:35;;;;;;;2.80;1.87;;;;;;;;;;5043306;28;89119;-49
2022/07/22 00:49:03;;;;;;;4.57;2.20;;;;;;;;;;5043434;28;87977;-49
2022/07/22 00:51:32;;;;;;;4.27;2.33;;;;;;;;;;5043155;28;87026;-49
2022/07/22 00:54:00;;;;;;;4.00;2.17;;;;;;;;;;5043194;28;86133;-49
2022/07/22 00:56:30;;;;;;;2.97;2.30;;;;;;;;;;5042765;28;88139;-49
2022/07/22 00:58:59;;;;;;;2.50;2.10;;;;;;;;;;5042419;28;87916;-49
2022/07/22 01:01:28;;;;;;;4.80;2.37;;;;;;;;;;5043214;28;87681;-49
2022/07/22 01:03:57;;;;;;;2.93;2.03;;;;;;;;;;5043775;28;86919;-49
2022/07/22 01:06:29;;;;;;;2.57;2.00;;;;;;;;;;5043488;28;88099;-49
2022/07/22 01:08:57;;;;;;;2.50;1.90;;;;;;;;;;5042067;28;88006;-49
2022/07/22 01:11:26;;;;;;;3.70;1.70;;;;;;;;;;5043092;28;87129;-49
2022/07/22 01:13:56;;;;;;;1.80;1.67;;;;;;;;;;5042870;28;87080;-49
2022/07/22 01:16:24;;;;;;;3.57;2.00;;;;;;;;;;5043166;28;88150;-49
2022/07/22 01:18:53;;;;;;;2.90;1.70;;;;;;;;;;5043434;28;87773;-49
2022/07/22 01:21:23;;;;;;;5.67;2.00;;;;;;;;;;5043730;28;87017;-49
2022/07/22 01:23:51;;;;;;;3.97;1.53;;;;;;;;;;5043289;28;87097;-49
2022/07/22 01:26:20;;;;;;;2.93;1.80;;;;;;;;;;5042277;28;89050;-51
2022/07/22 01:28:48;;;;;;;2.87;1.80;;;;;;;;;;5043156;28;88473;-49
2022/07/22 01:31:16;;;;;;;4.67;1.70;;;;;;;;;;5042770;28;86941;-49
2022/07/22 01:33:45;;;;;;;3.27;1.50;;;;;;;;;;5042518;27;86705;-49
2022/07/22 01:36:13;;;;;;;2.30;1.73;;;;;;;;;;5042286;28;88283;-49
2022/07/22 01:38:43;;;;;;;3.47;1.73;;;;;;;;;;5042612;28;88814;-49
2022/07/22 01:41:11;;;;;;;2.70;2.23;;;;;;;;;;5043099;28;86879;-49
2022/07/22 01:43:39;;;;;;;3.17;2.33;;;;;;;;;;5043180;28;86839;-49
2022/07/22 01:46:08;;;;;;;4.67;1.97;;;;;;;;;;5042591;28;88338;-49
2022/07/22 01:48:36;;;;;;;3.33;2.30;;;;;;;;;;5042842;28;89001;-49
2022/07/22 01:51:05;;;;;;;3.60;2.20;;;;;;;;;;5042185;28;87980;-49
2022/07/22 01:53:33;;;;;;;3.27;2.37;;;;;;;;;;5042664;28;86897;-49
2022/07/22 01:56:03;;;;;;;4.57;3.10;;;;;;;;;;5042154;28;89230;-49
2022/07/22 01:58:31;;;;;;;3.20;2.50;;;;;;;;;;5041763;28;87941;-49
2022/07/22 02:01:07;;;;;;;3.30;2.90;;;;;;;;;;5041809;28;87015;-50
2022/07/22 02:03:36;;;;;;;4.70;3.33;;;;;;;;;;5042772;28;86818;-49
2022/07/22 02:06:04;;;;;;;7.70;3.63;;;;;;;;;;5042550;28;88044;-49
2022/07/22 02:08:33;;;;;;;8.33;3.67;;;;;;;;;;5042554;28;87748;-49
2022/07/22 02:11:03;;;;;;;6.93;4.20;;;;;;;;;;5042650;28;87148;-49
2022/07/22 02:13:31;;;;;;;7.20;4.73;;;;;;;;;;5042357;28;87223;-49
2022/07/22 02:15:59;;;;;;;7.97;4.80;;;;;;;;;;5041872;28;90073;-49
2022/07/22 02:18:28;;;;;;;9.23;5.10;;;;;;;;;;5041916;28;89781;-49
2022/07/22 02:20:56;;;;;;;10.03;6.00;;;;;;;;;;5041962;28;86876;-49
2022/07/22 02:23:24;;;;;;;8.27;5.80;;;;;;;;;;5042249;28;87016;-48
2022/07/22 02:25:52;;;;;;;11.47;6.50;;;;;;;;;;5041307;28;89322;-49
2022/07/22 02:28:22;;;;;;;13.27;7.00;;;;;;;;;;5041174;28;88006;-49
2022/07/22 02:30:50;;;;;;;11.07;6.80;;;;;;;;;;5042168;28;87033;-49
2022/07/22 02:33:19;;;;;;;12.30;6.57;;;;;;;;;;5041827;28;86544;-50
2022/07/22 02:35:47;;;;;;;14.17;8.77;;;;;;;;;;5041426;28;88223;-49
2022/07/22 02:38:15;;;;;;;15.50;7.57;;;;;;;;;;5041731;28;88059;-49
2022/07/22 02:40:44;;;;;;;15.13;8.27;;;;;;;;;;5041259;28;88952;-49
2022/07/22 02:43:12;;;;;;;14.77;9.67;;;;;;;;;;5039643;28;86992;-49
2022/07/22 02:45:41;;;;;;;12.07;8.53;;;;;;;;;;5035938;27;88315;-50
2022/07/22 02:48:10;;;;;;;14.57;9.23;;;;;;;;;;5039808;28;87610;-49
2022/07/22 02:50:38;;;;;;;14.30;8.43;;;;;;;;;;5039972;28;87057;-49
2022/07/22 02:53:07;;;;;;;14.93;9.40;;;;;;;;;;5041195;28;87016;-49
2022/07/22 02:55:35;;;;;;;16.67;9.97;;;;;;;;;;5039438;28;88047;-50
2022/07/22 02:58:05;;;;;;;14.03;9.43;;;;;;;;;;5039429;28;87948;-49
2022/07/22 03:00:34;;;;;;;17.63;9.60;;;;;;;;;;5038848;28;86913;-49
2022/07/22 03:03:03;;;;;;;15.87;9.83;;;;;;;;;;5041362;28;87045;-49
2022/07/22 03:05:32;;;;;;;14.33;10.73;;;;;;;;;;5040726;28;89118;-49
2022/07/22 03:08:00;;;;;;;14.20;9.17;;;;;;;;;;5040755;28;89844;-49
2022/07/22 03:10:28;;;;;;;15.33;9.53;;;;;;;;;;5041117;28;87676;-49
2022/07/22 03:12:57;;;;;;;17.47;10.80;;;;;;;;;;5042064;28;87144;-49
2022/07/22 03:15:25;;;;;;;15.67;10.70;;;;;;;;;;5040489;28;88180;-49
2022/07/22 03:17:53;;;;;;;20.40;11.63;;;;;;;;;;5040797;28;87862;-49
2022/07/22 03:20:23;;;;;;;18.00;11.53;;;;;;;;;;5040323;28;87821;-49
2022/07/22 03:22:51;;;;;;;19.80;11.50;;;;;;;;;;5039761;28;86414;-50
2022/07/22 03:25:19;;;;;;;17.13;11.17;;;;;;;;;;5038982;28;88139;-49
2022/07/22 03:27:48;;;;;;;16.03;11.27;;;;;;;;;;5039794;28;89107;-49
2022/07/22 03:30:16;;;;;;;22.30;13.37;;;;;;;;;;5039214;28;88143;-49
2022/07/22 03:32:46;;;;;;;19.60;13.43;;;;;;;;;;5039375;28;87352;-50
2022/07/22 03:35:18;;;;;;;19.57;13.10;;;;;;;;;;5039278;28;89216;-49
2022/07/22 03:37:48;;;;;;;17.47;11.27;;;;;;;;;;5040007;28;88150;-49
2022/07/22 03:40:16;;;;;;;21.23;12.33;;;;;;;;;;5040113;28;87221;-49
2022/07/22 03:42:45;;;;;;;18.67;12.10;;;;;;;;;;5040232;28;86938;-49
2022/07/22 03:45:14;;;;;;;20.43;12.33;;;;;;;;;;5040312;28;89234;-49
2022/07/22 03:47:42;;;;;;;20.53;12.27;;;;;;;;;;5041158;28;88034;-49
2022/07/22 03:50:10;;;;;;;19.00;11.77;;;;;;;;;;5040778;28;87020;-49
2022/07/22 03:52:39;;;;;;;16.47;11.77;;;;;;;;;;5040385;28;86852;-49
2022/07/22 03:55:09;;;;;;;18.43;12.17;;;;;;;;;;5038620;28;89185;-49
2022/07/22 03:57:37;;;;;;;15.57;11.13;;;;;;;;;;5041325;27;90203;-49
2022/07/22 04:00:06;;;;;;;18.87;11.73;;;;;;;;;;5043911;28;87010;-49
2022/07/22 04:02:34;;;;;;;19.50;11.57;;;;;;;;;;5043644;28;87849;-49
2022/07/22 04:05:03;;;;;;;20.53;11.10;;;;;;;;;;5043740;28;88429;-49
2022/07/22 04:07:31;;;;;;;16.40;10.83;;;;;;;;;;5043788;28;87993;-49
2022/07/22 04:10:05;;;;;;;19.30;11.73;;;;;;;;;;5043478;28;86859;-49
2022/07/22 04:12:36;;;;;;;16.93;11.23;;;;;;;;;;5044076;28;86250;-49
2022/07/22 04:15:04;;;;;;;19.53;12.20;;;;;;;;;;5043691;28;88091;-49
2022/07/22 04:17:33;;;;;;;18.00;11.03;;;;;;;;;;5043752;28;87886;-49
2022/07/22 04:20:01;;;;;;;16.80;10.33;;;;;;;;;;5043344;28;88049;-49
2022/07/22 04:22:29;;;;;;;17.03;10.40;;;;;;;;;;5043930;28;87208;-49
2022/07/22 04:24:58;;;;;;;18.50;12.03;;;;;;;;;;5043229;28;87061;-49
2022/07/22 04:27:26;;;;;;;15.00;10.10;;;;;;;;;;5043219;28;89081;-49
2022/07/22 04:29:55;;;;;;;17.80;11.57;;;;;;;;;;5043392;28;86875;-49
2022/07/22 04:32:24;;;;;;;16.23;10.60;;;;;;;;;;5035100;28;87025;-49
2022/07/22 04:34:52;;;;;;;21.03;11.67;;;;;;;;;;5043085;28;88539;-50
2022/07/22 04:37:20;;;;;;;17.97;10.93;;;;;;;;;;5043595;28;89121;-49
2022/07/22 04:39:49;;;;;;;20.20;11.83;;;;;;;;;;5042991;28;87669;-49
2022/07/22 04:42:17;;;;;;;17.73;11.00;;;;;;;;;;5043281;28;87100;-49
2022/07/22 04:44:46;;;;;;;16.07;10.30;;;;;;;;;;5041621;28;89203;-49
2022/07/22 04:47:16;;;;;;;14.90;10.30;;;;;;;;;;5042562;28;88858;-49
2022/07/22 04:49:45;;;;;;;17.53;11.70;;;;;;;;;;5043131;28;87317;-49
2022/07/22 04:52:13;;;;;;;16.10;10.70;;;;;;;;;;5043221;28;87124;-49
2022/07/22 04:54:41;;;;;;;20.47;11.80;;;;;;;;;;5042992;28;89180;-49
2022/07/22 04:57:10;;;;;;;18.10;11.33;;;;;;;;;;5042716;28;88950;-47
2022/07/22 04:59:38;;;;;;;20.20;11.73;;;;;;;;;;5042856;28;87928;-49
2022/07/22 05:02:07;;;;;;;20.33;11.90;;;;;;;;;;5042752;28;86239;-49
2022/07/22 05:04:37;;;;;;;19.27;11.73;;;;;;;;;;5042982;28;89094;-49
2022/07/22 05:07:05;;;;;;;15.40;10.80;;;;;;;;;;5042566;28;87921;-49
2022/07/22 05:09:33;;;;;;;17.40;11.17;;;;;;;;;;5041360;28;87981;-50
2022/07/22 05:12:02;;;;;;;19.17;13.17;;;;;;;;;;5042736;28;87072;-49
2022/07/22 05:14:30;;;;;;;16.57;11.37;;;;;;;;;;5042822;28;87289;-49
2022/07/22 05:16:58;;;;;;;17.67;11.93;;;;;;;;;;5042529;28;89059;-49
2022/07/22 05:19:26;;;;;;;18.57;12.47;;;;;;;;;;5042841;28;87017;-49
2022/07/22 05:21:56;;;;;;;21.77;11.23;;;;;;;;;;5042654;28;86910;-47
2022/07/22 05:24:24;;;;;;;16.37;11.00;;;;;;;;;;5042688;28;88179;-47
2022/07/22 05:26:53;;;;;;;15.87;11.27;;;;;;;;;;5042131;28;88059;-47
2022/07/22 05:29:21;;;;;;;19.37;11.00;;;;;;;;;;5042577;28;87180;-47
2022/07/22 05:31:49;;;;;;;19.87;10.60;;;;;;;;;;5042418;28;86977;-48
2022/07/22 05:34:18;;;;;;;20.07;11.23;;;;;;;;;;5041748;28;88970;-50
2022/07/22 05:36:46;;;;;;;16.73;10.87;;;;;;;;;;5042096;28;88827;-49
2022/07/22 05:39:16;;;;;;;19.03;10.47;;;;;;;;;;5042329;28;87001;-49
2022/07/22 05:41:44;;;;;;;17.20;10.57;;;;;;;;;;5042112;28;86938;-49
2022/07/22 05:44:12;;;;;;;15.33;9.77;;;;;;;;;;5042212;28;88266;-49
2022/07/22 05:46:41;;;;;;;13.27;9.13;;;;;;;;;;5043008;28;87578;-49
2022/07/22 05:49:09;;;;;;;17.30;9.60;;;;;;;;;;5042985;28;86932;-51
2022/07/22 05:51:38;;;;;;;16.57;9.97;;;;;;;;;;5042898;28;86345;-49
2022/07/22 05:54:07;;;;;;;13.23;8.97;;;;;;;;;;5041185;28;88384;-49
2022/07/22 05:56:36;;;;;;;13.50;9.70;;;;;;;;;;5042438;28;88952;-49
2022/07/22 05:59:05;;;;;;;13.13;9.43;;;;;;;;;;5042370;28;87816;-49
2022/07/22 06:01:33;;;;;;;14.23;8.83;;;;;;;;;;5042558;28;87051;-49
2022/07/22 06:04:01;;;;;;;12.93;8.13;;;;;;;;;;5042885;28;89064;-49
2022/07/22 06:06:30;;;;;;;10.40;8.27;;;;;;;;;;5042169;28;89134;-48
2022/07/22 06:08:58;;;;;;;15.10;7.57;;;;;;;;;;5042429;28;87060;-49
2022/07/22 06:11:27;;;;;;;14.53;8.70;;;;;;;;;;5042420;28;86957;-49
2022/07/22 06:13:57;;;;;;;11.80;8.10;;;;;;;;;;5041975;28;89192;-49
2022/07/22 06:16:25;;;;;;;12.43;7.20;;;;;;;;;;5041963;28;89059;-49
2022/07/22 06:18:53;;;;;;;15.53;8.30;;;;;;;;;;5042036;28;87045;-49
2022/07/22 06:21:22;;;;;;;12.00;8.10;;;;;;;;;;5041822;27;87053;-49
2022/07/22 06:23:50;;;;;;;12.70;8.00;;;;;;;;;;5041290;28;89161;-49
2022/07/22 06:26:18;;;;;;;12.23;7.80;;;;;;;;;;5041964;28;89047;-49
2022/07/22 06:28:47;;;;;;;10.63;7.43;;;;;;;;;;5041948;28;87010;-49
2022/07/22 06:31:17;;;;;;;12.53;7.60;;;;;;;;;;5041780;28;87070;-49
2022/07/22 06:33:45;;;;;;;13.17;7.80;;;;;;;;;;5042353;28;89147;-49
2022/07/22 06:36:14;;;;;;;10.97;6.73;;;;;;;;;;5041662;28;88080;-49
2022/07/22 06:38:43;;;;;;;13.87;8.03;;;;;;;;;;5042222;28;86882;-49
2022/07/22 06:41:13;;;;;;;12.03;7.77;;;;;;;;;;5042528;28;86271;-49
2022/07/22 06:43:41;;;;;;;11.73;6.17;;;;;;;;;;5041826;28;89013;-49
2022/07/22 06:46:09;;;;;;;11.67;7.63;;;;;;;;;;5041600;28;87952;-49
2022/07/22 06:48:39;;;;;;;9.83;6.30;;;;;;;;;;5041969;28;87922;-49
2022/07/22 06:51:08;;;;;;;8.20;6.13;;;;;;;;;;5042302;28;87014;-49
2022/07/22 06:53:36;;;;;;;9.30;6.23;;;;;;;;;;5042185;28;88204;-50
2022/07/22 06:56:05;;;;;;;10.57;6.07;;;;;;;;;;5041849;28;87932;-49
2022/07/22 06:58:38;;;;;;;11.50;6.17;;;;;;;;;;5041651;28;86957;-49
2022/07/22 07:01:06;;;;;;;11.67;7.07;;;;;;;;;;5041521;28;87191;-49
2022/07/22 07:03:35;;;;;;;7.70;5.30;;;;;;;;;;5042197;28;88691;-49
2022/07/22 07:06:05;;;;;;;11.20;6.43;;;;;;;;;;5042019;28;88909;-49
2022/07/22 07:08:34;;;;;;;12.30;6.43;;;;;;;;;;5041291;28;87092;-49
2022/07/22 07:11:02;;;;;;;7.70;5.30;;;;;;;;;;5041687;28;87022;-49
2022/07/22 07:13:30;;;;;;;7.93;5.13;;;;;;;;;;5040584;28;90071;-49
2022/07/22 07:15:59;;;;;;;9.37;5.00;;;;;;;;;;5041329;28;88854;-49
2022/07/22 07:18:27;;;;;;;10.53;5.63;;;;;;;;;;5041476;28;87056;-49
2022/07/22 07:20:55;;;;;;;6.73;4.83;;;;;;;;;;5042007;28;86913;-49
2022/07/22 07:23:25;;;;;;;7.53;5.27;;;;;;;;;;5041145;28;88023;-49
2022/07/22 07:25:53;;;;;;;7.70;5.30;;;;;;;;;;5041293;28;87518;-49
2022/07/22 07:28:22;;;;;;;7.37;5.70;;;;;;;;;;5041110;28;87095;-49
2022/07/22 07:30:50;;;;;;;8.50;5.17;;;;;;;;;;5041365;28;86019;-49
2022/07/22 07:33:19;;;;;;;8.70;4.77;;;;;;;;;;5043466;27;88070;-49
2022/07/22 07:35:47;;;;;;;7.67;4.83;;;;;;;;;;5044978;28;87832;-49
2022/07/22 07:38:15;;;;;;;6.67;4.57;;;;;;;;;;5044629;28;87935;-49
2022/07/22 07:40:45;;;;;;;6.87;4.10;;;;;;;;;;5045181;28;87063;-49
2022/07/22 07:43:13;;;;;;;4.73;3.57;;;;;;;;;;5025409;28;88099;-49
2022/07/22 07:45:42;;;;;;;7.23;4.53;;;;;;;;;;5038493;28;88896;-49
2022/07/22 07:48:10;;;;;;;6.20;4.03;;;;;;;;;;5044627;28;87040;-49
2022/07/22 07:50:39;;;;;;;5.93;3.53;;;;;;;;;;5044548;28;87032;-49
2022/07/22 07:53:07;;;;;;;8.43;3.67;;;;;;;;;;5044968;28;88315;-49
2022/07/22 07:55:38;;;;;;;5.93;3.43;;;;;;;;;;5044960;28;87955;-49
2022/07/22 07:58:08;;;;;;;5.17;3.40;;;;;;;;;;5044890;28;86863;-49
2022/07/22 08:00:36;;;;;;;4.17;3.13;;;;;;;;;;5044328;28;86927;-49
2022/07/22 08:03:04;;;;;;;4.20;2.97;;;;;;;;;;5044014;28;88825;-49
2022/07/22 08:05:34;;;;;;;5.17;3.07;;;;;;;;;;5044551;28;89825;-49
2022/07/22 08:08:03;;;;;;;3.70;2.87;;;;;;;;;;5044337;28;87913;-49
2022/07/22 08:10:38;;;;;;;4.97;2.33;;;;;;;;;;5044097;28;87001;-50
2022/07/22 08:13:27;;;;;;;5.50;3.00;;;;;;;;;;5043913;28;89103;-49
2022/07/22 08:15:55;;;;;;;4.37;2.70;;;;;;;;;;5044350;28;88850;-49
2022/07/22 08:18:25;;;;;;;4.10;2.47;;;;;;;;;;5044684;28;86737;-49
2022/07/22 08:20:54;;;;;;;4.17;2.73;;;;;;;;;;5044387;28;86231;-49
2022/07/22 08:23:22;;;;;;;3.73;2.23;;;;;;;;;;5043640;28;88296;-49
2022/07/22 08:25:50;;;;;;;4.73;2.50;;;;;;;;;;5043602;28;88885;-49
2022/07/22 08:28:19;;;;;;;3.63;2.67;;;;;;;;;;5043254;28;87837;-49
2022/07/22 08:30:48;;;;;;;2.70;1.93;;;;;;;;;;5043395;28;87050;-49
2022/07/22 08:33:17;;;;;;;2.97;2.50;;;;;;;;;;5043203;28;88289;-49
2022/07/22 08:35:45;;;;;;;3.47;2.20;;;;;;;;;;5043699;28;88078;-49
2022/07/22 08:38:13;;;;;;;2.63;1.97;;;;;;;;;;5044220;28;86765;-49
2022/07/22 08:40:42;;;;;;;2.93;1.73;;;;;;;;;;5043749;28;87128;-49
2022/07/22 08:43:10;;;;;;;3.20;1.80;;;;;;;;;;5042895;28;89089;-49
2022/07/22 08:45:38;;;;;;;2.20;1.80;;;;;;;;;;5043952;28;87812;-49
2022/07/22 08:48:08;;;;;;;2.43;1.57;;;;;;;;;;5043783;28;87003;-49
2022/07/22 08:50:36;;;;;;;6.53;1.90;;;;;;;;;;5043587;28;87091;-49
2022/07/22 08:53:05;;;;;;;1.97;1.67;;;;;;;;;;5042927;28;89139;-49
2022/07/22 08:55:33;;;;;;;2.03;1.53;;;;;;;;;;5043308;28;87562;-49
2022/07/22 08:58:02;;;;;;;3.07;1.93;;;;;;;;;;5043763;28;87050;-49
2022/07/22 09:00:30;;;;;;;3.13;1.83;;;;;;;;;;5043449;28;87044;-50
2022/07/22 09:02:59;;;;;;;1.67;1.50;;;;;;;;;;5043105;28;89200;-50
2022/07/22 09:05:33;;;;;;;2.53;1.80;;;;;;;;;;5043508;28;87973;-49
2022/07/22 09:08:12;;;;;;;2.60;1.40;;;;;;;;;;5043279;28;87070;-49
2022/07/22 09:10:40;;;;;;;1.60;1.27;;;;;;;;;;5043387;28;86331;-49
2022/07/22 09:13:09;;;;;;;2.23;1.37;;;;;;;;;;5043453;28;89198;-49
2022/07/22 09:15:40;;;;;;;1.93;1.70;;;;;;;;;;5043159;28;87824;-49
2022/07/22 09:18:08;;;;;;;1.47;1.30;;;;;;;;;;5042940;28;88049;-49
2022/07/22 09:20:38;;;;;;;1.50;1.20;;;;;;;;;;5043253;28;86922;-49
2022/07/22 09:23:10;;;;;;;1.10;1.00;;;;;;;;;;5042770;28;89492;-49
2022/07/22 09:25:38;;;;;;;1.43;0.90;;;;;;;;;;5042698;28;87766;-49
2022/07/22 09:28:14;;;;;;;2.03;1.10;;;;;;;;;;5043012;28;86926;-49
2022/07/22 09:30:48;;;;;;;1.10;0.97;;;;;;;;;;5042900;28;87108;-49
2022/07/22 09:33:17;;;;;;;1.00;0.90;;;;;;;;;;5042563;28;88137;-49
2022/07/22 09:35:47;;;;;;;1.63;1.07;;;;;;;;;;5043380;28;89050;-49
2022/07/22 09:38:18;;;;;;;0.80;0.77;;;;;;;;;;5043198;28;87111;-49
2022/07/22 09:40:47;;;;;;;2.83;0.80;;;;;;;;;;5042813;28;87069;-49
2022/07/22 09:43:17;;;;;;;1.60;1.00;;;;;;;;;;5042349;28;89095;-49
2022/07/22 09:45:46;;;;;;;1.17;1.07;;;;;;;;;;5042726;28;87370;-49
2022/07/22 09:48:15;;;;;;;1.60;1.07;;;;;;;;;;5043243;28;86738;-49
2022/07/22 09:50:43;;;;;;;1.10;0.80;;;;;;;;;;5042893;28;86968;-49
2022/07/22 09:53:13;;;;;;;1.20;1.10;;;;;;;;;;5042525;28;89372;-49
2022/07/22 09:55:41;;;;;;;0.80;0.80;;;;;;;;;;5040995;28;87810;-49
2022/07/22 09:58:11;;;;;;;1.53;0.67;;;;;;;;;;5042838;28;86850;-49
2022/07/22 10:00:39;;;;;;;1.27;0.80;;;;;;;;;;5042836;28;86255;-49
2022/07/22 10:03:08;;;;;;;0.90;0.60;;;;;;;;;;5041898;28;89282;-49
2022/07/22 10:05:38;;;;;;;1.03;0.70;;;;;;;;;;5042261;28;87436;-49
2022/07/22 10:08:07;;;;;;;1.63;0.90;;;;;;;;;;5041927;28;87874;-49
2022/07/22 10:10:37;;;;;;;1.37;0.87;;;;;;;;;;5042665;28;88863;-49
2022/07/22 10:13:06;;;;;;;0.80;0.70;;;;;;;;;;5042421;28;88317;-49
2022/07/22 10:15:35;;;;;;;1.10;0.97;;;;;;;;;;5042169;28;88807;-49
2022/07/22 10:18:06;;;;;;;0.53;0.50;;;;;;;;;;5024906;28;86791;-49
2022/07/22 10:20:35;;;;;;;1.40;0.70;;;;;;;;;;5035146;28;86942;-49
2022/07/22 10:23:04;;;;;;;0.80;0.80;;;;;;;;;;5042386;28;88078;-49
2022/07/22 10:25:50;;;;;;;0.60;0.50;;;;;;;;;;5042301;28;88037;-49
2022/07/22 10:28:21;;;;;;;0.53;0.53;;;;;;;;;;5042285;28;86864;-49
2022/07/22 10:30:50;;;;;;;2.43;0.77;;;;;;;;;;5042111;28;87101;-49
2022/07/22 10:33:19;;;;;;;0.63;0.63;;;;;;;;;;5041574;28;89109;-49
2022/07/22 10:35:54;;;;;;;0.80;0.80;;;;;;;;;;5042321;28;88816;-49
2022/07/22 10:38:22;;;;;;;2.40;0.63;;;;;;;;;;5042400;28;87088;-49
2022/07/22 10:40:53;;;;;;;0.77;0.70;;;;;;;;;;5042268;28;86947;-49
2022/07/22 10:43:22;;;;;;;1.20;0.70;;;;;;;;;;5041949;28;88194;-49
2022/07/22 10:45:51;;;;;;;0.53;0.40;;;;;;;;;;5041875;28;89028;-49
2022/07/22 10:48:20;;;;;;;0.60;0.60;;;;;;;;;;5041904;28;87476;-49
2022/07/22 10:50:50;;;;;;;0.53;0.50;;;;;;;;;;5042132;28;86303;-49
2022/07/22 10:53:19;;;;;;;1.10;0.53;;;;;;;;;;5041659;28;88195;-49
2022/07/22 10:56:02;;;;;;;0.80;0.50;;;;;;;;;;5041361;28;89117;-49
2022/07/22 10:58:41;;;;;;;0.60;0.50;;;;;;;;;;5033678;28;87960;-49
2022/07/22 11:01:10;;;;;;;1.20;0.67;;;;;;;;;;5041247;28;87030;-49
2022/07/22 11:03:39;;;;;;;1.27;0.70;;;;;;;;;;5041636;28;87995;-49
2022/07/22 11:06:17;;;;;;;0.97;0.93;;;;;;;;;;5041332;27;88946;-49
2022/07/22 11:08:46;;;;;;;0.67;0.50;;;;;;;;;;5041591;28;87060;-49
2022/07/22 11:11:16;;;;;;;0.87;0.47;;;;;;;;;;5041490;28;87111;-49
2022/07/22 11:13:45;;;;;;;2.00;0.87;;;;;;;;;;5041342;28;86757;-50
2022/07/22 11:16:20;;;;;;;0.70;0.60;;;;;;;;;;5041601;28;88987;-49
2022/07/22 11:18:50;;;;;;;1.43;0.63;;;;;;;;;;5041433;28;86705;-49
2022/07/22 11:21:18;;;;;;;0.33;0.33;;;;;;;;;;5041768;28;87155;-49
2022/07/22 11:23:48;;;;;;;1.60;0.60;;;;;;;;;;5040843;28;89093;-49
2022/07/22 11:26:18;;;;;;;0.67;0.50;;;;;;;;;;5040565;28;88782;-49
2022/07/22 11:28:47;;;;;;;1.37;0.67;;;;;;;;;;5041179;28;87048;-49
2022/07/22 11:31:15;;;;;;;0.40;0.40;;;;;;;;;;5040979;28;88110;-49
2022/07/22 11:33:44;;;;;;;0.40;0.40;;;;;;;;;;5041417;28;88119;-49
2022/07/22 11:36:12;;;;;;;0.30;0.30;;;;;;;;;;5041446;28;87937;-49
2022/07/22 11:38:41;;;;;;;0.80;0.60;;;;;;;;;;5041804;28;86993;-50
2022/07/22 11:41:10;;;;;;;0.50;0.40;;;;;;;;;;5041298;28;86198;-49
2022/07/22 11:43:43;;;;;;;0.47;0.47;;;;;;;;;;5041313;28;88112;-49
2022/07/22 11:46:12;;;;;;;0.57;0.40;;;;;;;;;;5040697;28;88852;-49
2022/07/22 11:48:41;;;;;;;0.57;0.43;;;;;;;;;;5041124;28;88054;-49
2022/07/22 11:51:10;;;;;;;1.50;0.30;;;;;;;;;;5040746;28;86906;-50
2022/07/22 11:53:48;;;;;;;0.43;0.40;;;;;;;;;;5040384;28;88178;-47
2022/07/22 11:56:17;;;;;;;0.70;0.40;;;;;;;;;;5040139;28;87990;-50
2022/07/22 11:58:47;;;;;;;0.70;0.63;;;;;;;;;;5040923;28;87039;-50
2022/07/22 12:01:16;;;;;;;0.63;0.60;;;;;;;;;;5040522;28;86992;-50
2022/07/22 12:03:46;;;;;;;0.60;0.60;;;;;;;;;;5040468;28;89162;-50
2022/07/22 12:06:15;;;;;;;0.40;0.33;;;;;;;;;;5041233;28;87952;-50
2022/07/22 12:08:43;;;;;;;0.20;0.20;;;;;;;;;;5041209;28;87056;-50
2022/07/22 12:11:12;;;;;;;1.93;0.70;;;;;;;;;;5040760;28;87032;-50
2022/07/22 12:13:42;;;;;;;0.80;0.73;;;;;;;;;;5040226;28;90127;-50
2022/07/22 12:16:20;;;;;;;0.83;0.50;;;;;;;;;;5041010;28;88659;-50
2022/07/22 12:18:52;;;;;;;0.47;0.30;;;;;;;;;;5042001;27;87013;-50
2022/07/22 12:21:21;;;;;;;0.20;0.20;;;;;;;;;;5043957;28;87238;-50
2022/07/22 12:23:52;;;;;;;0.37;0.30;;;;;;;;;;5044176;28;89299;-50
2022/07/22 12:26:21;;;;;;;0.63;0.37;;;;;;;;;;5043852;28;88869;-50
2022/07/22 12:28:50;;;;;;;0.87;0.60;;;;;;;;;;5042295;28;87018;-49
2022/07/22 12:31:19;;;;;;;0.60;0.40;;;;;;;;;;5043799;28;86302;-50
2022/07/22 12:33:49;;;;;;;0.27;0.27;;;;;;;;;;5043928;28;90262;-50
2022/07/22 12:36:17;;;;;;;0.40;0.40;;;;;;;;;;5043877;28;87812;-50
2022/07/22 12:38:45;;;;;;;0.77;0.40;;;;;;;;;;5043551;28;87811;-50
2022/07/22 12:41:23;;;;;;;0.57;0.40;;;;;;;;;;5044190;28;87081;-49
2022/07/22 12:43:52;;;;;;;0.40;0.40;;;;;;;;;;5043957;28;88274;-50
2022/07/22 12:46:22;;;;;;;0.40;0.40;;;;;;;;;;5043580;28;88994;-50
2022/07/22 12:48:52;;;;;;;0.20;0.20;;;;;;;;;;5044054;28;86788;-50
2022/07/22 12:51:20;;;;;;;0.40;0.40;;;;;;;;;;5043371;28;87043;-50
2022/07/22 12:53:48;;;;;;;0.30;0.30;;;;;;;;;;5043555;28;88054;-50
2022/07/22 12:56:16;;;;;;;1.97;0.50;;;;;;;;;;5043557;28;88904;-50
2022/07/22 12:58:45;;;;;;;0.40;0.40;;;;;;;;;;5043411;28;87060;-50
2022/07/22 13:01:13;;;;;;;0.37;0.30;;;;;;;;;;5043124;28;86990;-50
2022/07/22 13:03:43;;;;;;;0.33;0.33;;;;;;;;;;5043288;28;89018;-50
2022/07/22 13:06:11;;;;;;;0.60;0.60;;;;;;;;;;5043865;28;88759;-50
2022/07/22 13:08:41;;;;;;;1.83;0.50;;;;;;;;;;5043482;28;87078;-48
2022/07/22 13:11:14;;;;;;;0.30;0.30;;;;;;;;;;5043177;28;86921;-48
2022/07/22 13:13:45;;;;;;;0.87;0.50;;;;;;;;;;5042642;28;89150;-48
2022/07/22 13:16:13;;;;;;;0.93;0.37;;;;;;;;;;5042699;28;87785;-48
2022/07/22 13:18:43;;;;;;;0.43;0.30;;;;;;;;;;5042895;28;87190;-50
2022/07/22 13:21:12;;;;;;;1.80;0.43;;;;;;;;;;5043470;28;86372;-49
2022/07/22 13:23:40;;;;;;;0.53;0.33;;;;;;;;;;5042311;28;88306;-49
2022/07/22 13:26:08;;;;;;;0.43;0.40;;;;;;;;;;5041983;28;89155;-49
2022/07/22 13:28:37;;;;;;;0.47;0.43;;;;;;;;;;5042652;28;88021;-50
2022/07/22 13:31:05;;;;;;;0.97;0.50;;;;;;;;;;5041369;28;86970;-49
2022/07/22 13:33:33;;;;;;;1.13;0.67;;;;;;;;;;5042773;28;88276;-50
2022/07/22 13:36:03;;;;;;;0.40;0.40;;;;;;;;;;5042908;28;89095;-49
2022/07/22 13:38:31;;;;;;;0.30;0.30;;;;;;;;;;5043042;28;87112;-49
2022/07/22 13:41:00;;;;;;;0.50;0.50;;;;;;;;;;5042589;28;87042;-49
2022/07/22 13:43:30;;;;;;;1.27;0.50;;;;;;;;;;5042388;28;88401;-49
2022/07/22 13:45:58;;;;;;;0.40;0.40;;;;;;;;;;5042980;28;87601;-50
2022/07/22 13:48:27;;;;;;;0.40;0.30;;;;;;;;;;5034847;28;87060;-49
2022/07/22 13:50:55;;;;;;;0.60;0.40;;;;;;;;;;5042408;28;87139;-48
2022/07/22 13:53:25;;;;;;;0.30;0.30;;;;;;;;;;5033580;28;89176;-49
2022/07/22 13:55:53;;;;;;;0.30;0.30;;;;;;;;;;5042363;28;88891;-49
2022/07/22 13:58:21;;;;;;;2.20;0.30;;;;;;;;;;5042761;28;87066;-49
2022/07/22 14:00:49;;;;;;;0.60;0.60;;;;;;;;;;5042105;28;87038;-49
2022/07/22 14:03:18;;;;;;;0.37;0.37;;;;;;;;;;5042358;28;87968;-48
2022/07/22 14:05:46;;;;;;;0.30;0.30;;;;;;;;;;5042221;28;87840;-49
2022/07/22 14:08:14;;;;;;;0.57;0.50;;;;;;;;;;5042036;28;86965;-49
2022/07/22 14:10:44;;;;;;;0.50;0.50;;;;;;;;;;5042940;28;86296;-49
2022/07/22 14:13:13;;;;;;;0.33;0.33;;;;;;;;;;5042247;28;87099;-49
2022/07/22 14:15:41;;;;;;;0.20;0.20;;;;;;;;;;5042297;28;88003;-49
2022/07/22 14:18:09;;;;;;;0.20;0.20;;;;;;;;;;5042252;28;87932;-49
2022/07/22 14:20:39;;;;;;;0.30;0.30;;;;;;;;;;5042587;28;87044;-49
2022/07/22 14:23:09;;;;;;;0.20;0.20;;;;;;;;;;5041910;28;88194;-49
2022/07/22 14:25:37;;;;;;;0.20;0.20;;;;;;;;;;5041763;28;87027;-49
2022/07/22 14:28:07;;;;;;;0.27;0.27;;;;;;;;;;5042327;28;86866;-50
2022/07/22 14:30:55;;;;;;;0.27;0.27;;;;;;;;;;5041920;28;86766;-49
2022/07/22 14:33:24;;;;;;;0.40;0.40;;;;;;;;;;5041421;28;89126;-48
2022/07/22 14:35:52;;;;;;;0.37;0.37;;;;;;;;;;5042067;28;87857;-50
2022/07/22 14:38:20;;;;;;;0.50;0.30;;;;;;;;;;5041906;28;86729;-50
2022/07/22 14:40:49;;;;;;;0.63;0.60;;;;;;;;;;5041306;27;87051;-50
2022/07/22 14:43:18;;;;;;;0.30;0.30;;;;;;;;;;5040262;28;89365;-50
2022/07/22 14:46:09;;;;;;;0.97;0.30;;;;;;;;;;5041900;28;88319;-48
2022/07/22 14:48:38;;;;;;;0.30;0.30;;;;;;;;;;5042141;28;86918;-51